Time;durP1;ratioP1;P1;durP2;ratioP2;P2;SDS_P1;SDS_P2;PMS_P1;PMS_P2;Temp;Humidity;BMP_temperature;BMP_pressure;BME280_temperature;BME280_humidity;BME280_pressure;Samples;Min_cycle;Max_cycle;Signal;HPM_P1;HPM_P2
2022/07/10 00:01:01;;;;;;;11.23;2.67;;;;;;;11.91;100.00;102793.72;5267256;28;20020;-69
2022/07/10 00:03:31;;;;;;;7.45;3.00;;;;;;;11.88;100.00;102793.97;5246549;28;20428;-69
2022/07/10 00:06:02;;;;;;;9.25;2.95;;;;;;;11.83;100.00;102796.19;5250761;28;20027;-69
2022/07/10 00:08:32;;;;;;;10.68;3.33;;;;;;;11.80;100.00;102794.59;5256381;28;20032;-69
2022/07/10 00:11:02;;;;;;;6.85;2.45;;;;;;;11.80;100.00;102793.75;5248120;28;20016;-69
2022/07/10 00:13:33;;;;;;;6.90;2.80;;;;;;;11.77;100.00;102796.69;5248418;28;20493;-69
2022/07/10 00:16:04;;;;;;;9.60;3.00;;;;;;;11.74;100.00;102794.22;5260710;28;20120;-69
2022/07/10 00:18:35;;;;;;;6.97;2.85;;;;;;;11.70;100.00;102795.44;5249527;28;20107;-69
2022/07/10 00:21:06;;;;;;;9.50;2.92;;;;;;;11.66;100.00;102797.56;5252581;28;20052;-69
2022/07/10 00:23:36;;;;;;;8.82;2.53;;;;;;;11.65;100.00;102793.16;5247773;28;20024;-69
2022/07/10 00:26:07;;;;;;;10.15;2.80;;;;;;;11.63;100.00;102795.97;5258973;28;20020;-69
2022/07/10 00:28:37;;;;;;;8.82;3.28;;;;;;;11.62;100.00;102796.94;5255126;28;20051;-69
2022/07/10 00:31:10;;;;;;;6.47;2.97;;;;;;;11.58;100.00;102789.25;5268600;28;20177;-69
2022/07/10 00:33:40;;;;;;;11.93;2.72;;;;;;;11.55;100.00;102786.84;5254809;28;20154;-70
2022/07/10 00:36:11;;;;;;;7.10;2.45;;;;;;;11.48;100.00;102789.16;5254554;28;20103;-69
2022/07/10 00:38:42;;;;;;;7.38;3.25;;;;;;;11.42;100.00;102789.66;5247593;28;20031;-69
2022/07/10 00:41:12;;;;;;;5.80;3.25;;;;;;;11.36;100.00;102791.00;5262597;28;20032;-69
2022/07/10 00:43:58;;;;;;;9.15;3.30;;;;;;;11.33;100.00;102785.88;5259438;28;20028;-69
2022/07/10 00:46:30;;;;;;;7.20;3.10;;;;;;;11.30;100.00;102786.16;5263844;28;20032;-70
2022/07/10 00:49:01;;;;;;;10.93;3.55;;;;;;;11.27;100.00;102788.22;5259630;28;20016;-69
2022/07/10 00:51:33;;;;;;;7.40;3.63;;;;;;;11.23;100.00;102787.59;5248847;28;20032;-69
2022/07/10 00:54:05;;;;;;;7.75;3.25;;;;;;;11.18;100.00;102780.88;5247089;28;20486;-69
2022/07/10 00:56:36;;;;;;;9.77;3.08;;;;;;;11.13;100.00;102779.41;5254714;28;20469;-69
2022/07/10 00:59:09;;;;;;;8.60;2.95;;;;;;;11.10;100.00;102777.00;5253173;28;20040;-69
2022/07/10 01:01:40;;;;;;;5.78;2.70;;;;;;;11.08;100.00;102775.41;5247353;28;20016;-68
2022/07/10 01:04:10;;;;;;;10.77;3.45;;;;;;;11.06;100.00;102769.31;5246804;28;20036;-69
2022/07/10 01:06:50;;;;;;;10.32;3.60;;;;;;;11.02;100.00;102765.16;5259440;28;20035;-69
2022/07/10 01:09:20;;;;;;;8.23;3.13;;;;;;;10.99;100.00;102763.53;5254461;28;20016;-69
2022/07/10 01:11:51;;;;;;;10.15;3.97;;;;;;;10.95;100.00;102767.47;5267510;28;20024;-69
2022/07/10 01:14:22;;;;;;;9.23;3.78;;;;;;;10.90;100.00;102756.25;5260618;28;20039;-68
2022/07/10 01:16:53;;;;;;;8.73;3.05;;;;;;;10.85;100.00;102753.06;5260417;28;20036;-69
2022/07/10 01:19:23;;;;;;;9.45;3.20;;;;;;;10.81;100.00;102757.81;5253874;28;20111;-69
2022/07/10 01:21:54;;;;;;;12.55;3.97;;;;;;;10.77;100.00;102763.56;5246678;28;20029;-69
2022/07/10 01:24:25;;;;;;;7.32;3.33;;;;;;;10.71;100.00;102758.69;5246768;28;20031;-68
2022/07/10 01:26:55;;;;;;;5.13;3.08;;;;;;;10.65;100.00;102749.28;5250583;28;20055;-69
2022/07/10 01:29:26;;;;;;;9.25;3.40;;;;;;;10.60;100.00;102755.00;5267595;28;20068;-68
2022/07/10 01:31:59;;;;;;;12.63;3.63;;;;;;;10.54;100.00;102750.13;5249068;28;20009;-69
2022/07/10 01:34:30;;;;;;;10.25;3.40;;;;;;;10.51;100.00;102752.19;5259418;28;20028;-68
2022/07/10 01:37:00;;;;;;;10.07;3.47;;;;;;;10.48;100.00;102755.09;5267558;28;20020;-69
2022/07/10 01:39:32;;;;;;;9.85;3.55;;;;;;;10.44;100.00;102754.50;5253366;28;20024;-69
2022/07/10 01:42:02;;;;;;;9.10;3.17;;;;;;;10.43;100.00;102744.72;5245108;28;20039;-69
2022/07/10 01:44:33;;;;;;;4.43;2.78;;;;;;;10.45;100.00;102748.16;5260133;28;20024;-69
2022/07/10 01:47:04;;;;;;;6.30;3.08;;;;;;;10.43;100.00;102749.22;5246748;28;20366;-68
2022/07/10 01:49:44;;;;;;;9.18;3.40;;;;;;;10.40;100.00;102755.72;5259938;28;20048;-68
2022/07/10 01:52:15;;;;;;;11.88;3.67;;;;;;;10.36;100.00;102752.41;5258067;28;20588;-69
2022/07/10 01:54:47;;;;;;;10.68;3.67;;;;;;;10.30;100.00;102750.19;5247711;28;20032;-68
2022/07/10 01:57:18;;;;;;;8.63;3.50;;;;;;;10.26;100.00;102746.03;5255684;28;20024;-69
2022/07/10 01:59:48;;;;;;;6.85;3.50;;;;;;;10.25;100.00;102746.16;5240102;28;20359;-69
2022/07/10 02:02:19;;;;;;;5.93;2.97;;;;;;;10.24;100.00;102753.34;5264382;28;20107;-69
2022/07/10 02:04:50;;;;;;;9.80;3.78;;;;;;;10.22;100.00;102749.88;5242042;28;20062;-69
2022/07/10 02:07:22;;;;;;;12.40;3.58;;;;;;;10.18;100.00;102756.44;5253493;28;20051;-69
2022/07/10 02:09:57;;;;;;;14.40;3.47;;;;;;;10.16;100.00;102755.72;5256148;28;20108;-69
2022/07/10 02:12:27;;;;;;;10.07;3.92;;;;;;;10.13;100.00;102750.59;5259365;28;20099;-69
2022/07/10 02:15:00;;;;;;;6.50;4.03;;;;;;;10.09;100.00;102755.34;5245564;28;20020;-69
2022/07/10 02:17:30;;;;;;;7.82;3.20;;;;;;;10.08;100.00;102756.28;5251732;28;20024;-69
2022/07/10 02:20:01;;;;;;;9.25;3.63;;;;;;;10.05;100.00;102753.88;5253032;28;20021;-69
2022/07/10 02:22:31;;;;;;;9.50;3.47;;;;;;;10.03;100.00;102752.25;5245826;28;20028;-69
2022/07/10 02:25:02;;;;;;;9.80;3.90;;;;;;;9.99;100.00;102742.72;5244961;28;20036;-69
2022/07/10 02:27:34;;;;;;;12.23;3.55;;;;;;;9.93;100.00;102746.72;5245402;28;20055;-69
2022/07/10 02:30:05;;;;;;;8.32;3.38;;;;;;;9.87;100.00;102739.16;5245664;28;20056;-69
2022/07/10 02:32:35;;;;;;;7.30;3.60;;;;;;;9.81;100.00;102744.97;5255837;28;20024;-69
2022/07/10 02:35:06;;;;;;;8.10;3.67;;;;;;;9.75;100.00;102751.66;5262054;28;20024;-69
2022/07/10 02:37:37;;;;;;;6.45;3.45;;;;;;;9.71;100.00;102747.50;5257093;28;20107;-69
2022/07/10 02:40:08;;;;;;;10.23;3.72;;;;;;;9.71;100.00;102752.84;5252295;28;20024;-69
2022/07/10 02:42:38;;;;;;;13.27;3.50;;;;;;;9.69;100.00;102753.91;5253822;28;20082;-69
2022/07/10 02:45:09;;;;;;;9.05;4.07;;;;;;;9.67;100.00;102748.69;5251581;28;20020;-69
2022/07/10 02:47:39;;;;;;;6.82;3.80;;;;;;;9.66;100.00;102756.84;5254664;28;20059;-69
2022/07/10 02:50:10;;;;;;;8.70;3.97;;;;;;;9.64;100.00;102753.41;5253237;28;20016;-69
2022/07/10 02:52:40;;;;;;;7.10;3.53;;;;;;;9.60;100.00;102752.81;5265897;28;20122;-70
2022/07/10 02:55:11;;;;;;;9.00;4.25;;;;;;;9.58;100.00;102744.84;5262677;28;20555;-69
2022/07/10 02:57:41;;;;;;;13.18;4.30;;;;;;;9.58;100.00;102744.00;5244273;28;21403;-69
2022/07/10 03:00:12;;;;;;;8.63;4.38;;;;;;;9.56;100.00;102741.44;5246086;28;20070;-69
2022/07/10 03:02:43;;;;;;;8.98;4.03;;;;;;;9.53;100.00;102738.13;5239592;28;20489;-69
2022/07/10 03:05:13;;;;;;;9.45;4.10;;;;;;;9.50;100.00;102738.38;5247694;28;20111;-69
2022/07/10 03:07:44;;;;;;;10.00;4.05;;;;;;;9.48;100.00;102737.63;5266183;28;20020;-69
2022/07/10 03:10:14;;;;;;;8.00;3.50;;;;;;;9.46;100.00;102735.06;5266265;28;20024;-69
2022/07/10 03:12:46;;;;;;;7.75;4.05;;;;;;;9.46;100.00;102727.03;5252580;28;20417;-69
2022/07/10 03:15:17;;;;;;;9.02;4.07;;;;;;;9.45;100.00;102725.31;5265817;28;20020;-69
2022/07/10 03:17:48;;;;;;;8.55;4.32;;;;;;;9.45;100.00;102732.50;5265846;28;20028;-69
2022/07/10 03:20:18;;;;;;;9.30;3.75;;;;;;;9.45;100.00;102717.28;5256401;28;20036;-69
2022/07/10 03:22:49;;;;;;;10.05;3.50;;;;;;;9.44;100.00;102734.34;5254863;28;20423;-69
2022/07/10 03:25:19;;;;;;;13.25;4.03;;;;;;;9.41;100.00;102720.28;5252362;28;20028;-69
2022/07/10 03:27:50;;;;;;;7.65;3.90;;;;;;;9.38;100.00;102723.19;5265823;28;20497;-69
2022/07/10 03:30:21;;;;;;;11.13;3.75;;;;;;;9.34;100.00;102710.03;5252125;28;20027;-69
2022/07/10 03:32:51;;;;;;;10.63;4.32;;;;;;;9.33;100.00;102712.81;5266070;28;20028;-69
2022/07/10 03:35:22;;;;;;;8.73;4.05;;;;;;;9.31;100.00;102712.09;5260087;28;20017;-69
2022/07/10 03:37:52;;;;;;;5.50;3.40;;;;;;;9.30;100.00;102711.22;5248847;28;20059;-69
2022/07/10 03:40:23;;;;;;;9.20;3.97;;;;;;;9.30;100.00;102707.69;5248775;28;20035;-69
2022/07/10 03:42:54;;;;;;;8.30;4.47;;;;;;;9.31;100.00;102717.44;5262061;28;20464;-69
2022/07/10 03:45:24;;;;;;;7.78;3.75;;;;;;;9.32;100.00;102719.13;5248786;28;20029;-69
2022/07/10 03:47:55;;;;;;;9.80;3.47;;;;;;;9.34;100.00;102719.91;5251827;28;20046;-70
2022/07/10 03:50:26;;;;;;;9.52;3.42;;;;;;;9.33;100.00;102718.16;5269882;28;20043;-69
2022/07/10 03:52:56;;;;;;;6.30;3.65;;;;;;;9.30;100.00;102716.59;5265089;28;20103;-69
2022/07/10 03:55:27;;;;;;;7.03;3.83;;;;;;;9.26;100.00;102723.13;5254130;28;20024;-69
2022/07/10 03:57:59;;;;;;;8.07;3.67;;;;;;;9.25;100.00;102721.41;5248581;28;20013;-69
2022/07/10 04:00:32;;;;;;;11.70;4.00;;;;;;;9.27;100.00;102719.47;5248568;28;20037;-70
2022/07/10 04:03:06;;;;;;;5.78;3.13;;;;;;;9.31;100.00;102714.75;5254406;28;20021;-69
2022/07/10 04:05:36;;;;;;;10.35;3.97;;;;;;;9.32;100.00;102713.78;5257090;28;20020;-70
2022/07/10 04:08:08;;;;;;;7.13;4.03;;;;;;;9.34;100.00;102719.91;5260521;28;20028;-69
2022/07/10 04:10:39;;;;;;;12.07;4.20;;;;;;;9.35;100.00;102716.25;5248342;28;20032;-69
2022/07/10 04:13:10;;;;;;;8.82;3.97;;;;;;;9.37;100.00;102718.81;5258910;28;20031;-70
2022/07/10 04:15:40;;;;;;;8.65;3.90;;;;;;;9.37;100.00;102719.66;5264997;28;20031;-69
2022/07/10 04:18:11;;;;;;;10.25;3.38;;;;;;;9.39;100.00;102717.75;5259728;28;20030;-69
2022/07/10 04:20:41;;;;;;;8.85;4.53;;;;;;;9.42;100.00;102717.50;5247397;28;20454;-69
2022/07/10 04:23:12;;;;;;;10.95;4.03;;;;;;;9.48;100.00;102718.88;5251666;28;20032;-70
2022/07/10 04:25:42;;;;;;;14.20;3.47;;;;;;;9.54;100.00;102730.00;5255444;28;20024;-69
2022/07/10 04:28:13;;;;;;;8.18;4.05;;;;;;;9.65;100.00;102733.72;5268961;28;20070;-69
2022/07/10 04:30:43;;;;;;;9.13;3.28;;;;;;;9.70;100.00;102743.09;5248957;28;20456;-69
2022/07/10 04:33:14;;;;;;;8.05;3.33;;;;;;;9.74;100.00;102733.88;5247715;28;20032;-70
2022/07/10 04:35:44;;;;;;;7.85;3.88;;;;;;;9.82;100.00;102738.66;5247679;28;20031;-70
2022/07/10 04:38:15;;;;;;;11.80;4.70;;;;;;;9.91;100.00;102727.22;5251360;28;20495;-69
2022/07/10 04:40:45;;;;;;;9.63;3.92;;;;;;;10.02;100.00;102729.94;5268659;28;20074;-69
2022/07/10 04:43:16;;;;;;;7.15;4.15;;;;;;;10.18;100.00;102736.81;5268122;28;20042;-69
2022/07/10 04:45:46;;;;;;;8.45;3.90;;;;;;;10.33;100.00;102746.41;5268393;28;20473;-69
2022/07/10 04:48:17;;;;;;;7.97;4.22;;;;;;;10.45;100.00;102737.41;5250910;28;20107;-69
2022/07/10 04:50:47;;;;;;;6.65;3.53;;;;;;;10.57;100.00;102740.97;5247401;28;20416;-69
2022/07/10 04:53:18;;;;;;;7.55;4.03;;;;;;;10.70;100.00;102733.66;5247273;28;20024;-70
2022/07/10 04:55:48;;;;;;;10.73;3.97;;;;;;;10.85;100.00;102743.19;5254334;28;20115;-70
2022/07/10 04:58:19;;;;;;;17.30;4.53;;;;;;;11.02;100.00;102744.50;5268593;28;20488;-70
2022/07/10 05:00:49;;;;;;;10.63;4.50;;;;;;;11.20;100.00;102735.97;5268019;28;20107;-69
2022/07/10 05:03:20;;;;;;;8.43;4.20;;;;;;;11.37;100.00;102728.22;5247352;28;20052;-69
2022/07/10 05:05:50;;;;;;;10.43;4.30;;;;;;;11.55;100.00;102735.78;5246606;28;20343;-69
2022/07/10 05:08:21;;;;;;;8.50;3.80;;;;;;;11.73;100.00;102741.44;5268304;28;20024;-69
2022/07/10 05:10:51;;;;;;;10.00;4.93;;;;;;;11.91;100.00;102740.78;5249907;28;20025;-69
2022/07/10 05:13:22;;;;;;;11.57;4.13;;;;;;;12.10;100.00;102739.25;5247122;28;20111;-69
2022/07/10 05:15:52;;;;;;;5.30;2.80;;;;;;;12.38;100.00;102738.56;5252502;28;20024;-69
2022/07/10 05:18:23;;;;;;;12.20;3.17;;;;;;;12.61;100.00;102733.91;5267883;28;20024;-69
2022/07/10 05:20:53;;;;;;;12.38;2.55;;;;;;;12.79;100.00;102730.56;5246472;28;20029;-70
2022/07/10 05:23:24;;;;;;;6.32;2.63;;;;;;;12.98;100.00;102740.56;5261427;28;20023;-70
2022/07/10 05:25:54;;;;;;;9.57;2.53;;;;;;;13.19;100.00;102734.13;5259355;28;20016;-69
2022/07/10 05:28:25;;;;;;;10.77;2.35;;;;;;;13.34;100.00;102729.22;5247060;28;20110;-69
2022/07/10 05:30:55;;;;;;;8.95;2.47;;;;;;;13.47;100.00;102726.28;5256065;28;20020;-70
2022/07/10 05:33:28;;;;;;;5.30;2.38;;;;;;;13.64;100.00;102732.81;5250729;28;20021;-70
2022/07/10 05:35:58;;;;;;;7.05;2.25;;;;;;;13.74;100.00;102737.22;5246817;28;20048;-70
2022/07/10 05:38:29;;;;;;;10.23;2.65;;;;;;;13.79;100.00;102734.09;5260159;28;20524;-70
2022/07/10 05:40:59;;;;;;;8.73;2.33;;;;;;;13.86;100.00;102727.16;5258541;28;20500;-70
2022/07/10 05:43:30;;;;;;;6.38;2.15;;;;;;;14.03;100.00;102735.53;5267050;28;20107;-69
2022/07/10 05:46:00;;;;;;;7.65;2.20;;;;;;;14.08;100.00;102735.97;5267381;28;20032;-70
2022/07/10 05:48:31;;;;;;;6.78;2.38;;;;;;;14.19;100.00;102727.69;5248595;28;20024;-69
2022/07/10 05:51:02;;;;;;;6.78;2.25;;;;;;;14.32;100.00;102730.09;5259945;28;20024;-69
2022/07/10 05:53:32;;;;;;;4.75;1.90;;;;;;;14.38;100.00;102724.13;5246305;28;20493;-70
2022/07/10 05:56:03;;;;;;;5.75;2.13;;;;;;;14.43;100.00;102709.19;5247607;28;20016;-69
2022/07/10 05:58:34;;;;;;;10.63;2.42;;;;;;;14.48;100.00;102706.91;5257989;28;20495;-69
2022/07/10 06:01:04;;;;;;;8.98;2.53;;;;;;;14.53;100.00;102692.13;5259753;28;20027;-70
2022/07/10 06:03:35;;;;;;;8.07;2.58;;;;;;;14.54;100.00;102710.03;5234450;28;20029;-69
2022/07/10 06:06:05;;;;;;;7.95;3.40;;;;;;;14.51;100.00;102703.09;5247422;28;20025;-70
2022/07/10 06:08:36;;;;;;;13.05;4.10;;;;;;;14.54;100.00;102715.44;5246003;28;20044;-69
2022/07/10 06:11:06;;;;;;;7.85;2.65;;;;;;;14.66;100.00;102723.22;5240547;28;20023;-69
2022/07/10 06:13:37;;;;;;;10.20;3.08;;;;;;;14.71;100.00;102720.94;5266762;28;20397;-70
2022/07/10 06:16:08;;;;;;;8.38;2.65;;;;;;;14.73;100.00;102718.91;5266475;28;20392;-70
2022/07/10 06:18:38;;;;;;;8.88;2.90;;;;;;;14.80;100.00;102718.31;5250919;28;20024;-69
2022/07/10 06:21:09;;;;;;;5.68;2.10;;;;;;;14.89;100.00;102720.97;5254935;28;20074;-70
2022/07/10 06:23:39;;;;;;;4.70;2.47;;;;;;;14.94;100.00;102725.94;5260589;28;20028;-69
2022/07/10 06:26:10;;;;;;;6.35;2.03;;;;;;;15.10;100.00;102726.13;5256868;28;20115;-70
2022/07/10 06:28:40;;;;;;;5.45;2.10;;;;;;;15.18;100.00;102728.94;5248472;28;20543;-69
2022/07/10 06:31:11;;;;;;;4.32;1.88;;;;;;;15.19;100.00;102735.19;5258159;28;20107;-70
2022/07/10 06:33:42;;;;;;;9.18;2.13;;;;;;;15.24;100.00;102739.16;5246191;28;20031;-70
2022/07/10 06:36:12;;;;;;;9.70;2.13;;;;;;;15.43;100.00;102731.94;5259013;28;20473;-70
2022/07/10 06:38:43;;;;;;;5.20;1.80;;;;;;;15.50;100.00;102733.84;5259343;28;20028;-70
2022/07/10 06:41:13;;;;;;;5.70;1.88;;;;;;;15.61;100.00;102734.63;5259254;28;20031;-70
2022/07/10 06:43:44;;;;;;;4.75;1.52;;;;;;;15.72;100.00;102740.72;5253719;28;20031;-70
2022/07/10 06:46:14;;;;;;;5.13;1.80;;;;;;;15.79;100.00;102744.50;5265814;28;20032;-70
2022/07/10 06:48:45;;;;;;;9.77;2.28;;;;;;;15.83;100.00;102745.06;5255370;28;20034;-69
2022/07/10 06:51:15;;;;;;;6.90;2.10;;;;;;;15.85;100.00;102737.63;5266537;28;20023;-70
2022/07/10 06:53:46;;;;;;;6.80;2.00;;;;;;;15.93;100.00;102748.53;5255501;28;20379;-70
2022/07/10 06:56:17;;;;;;;7.35;2.10;;;;;;;16.04;100.00;102744.72;5244725;28;20107;-70
2022/07/10 06:58:47;;;;;;;5.15;1.75;;;;;;;16.08;100.00;102742.56;5257048;28;20046;-70
2022/07/10 07:01:18;;;;;;;4.80;1.80;;;;;;;16.17;100.00;102747.91;5252944;28;20024;-70
2022/07/10 07:03:48;;;;;;;3.85;1.35;;;;;;;16.29;100.00;102740.38;5238818;28;20382;-71
2022/07/10 07:06:19;;;;;;;3.70;1.50;;;;;;;16.28;100.00;102739.50;5245291;28;20086;-70
2022/07/10 07:08:49;;;;;;;8.52;1.73;;;;;;;16.37;100.00;102735.00;5259151;28;20481;-70
2022/07/10 07:11:19;;;;;;;4.35;1.52;;;;;;;16.70;100.00;102736.06;5247928;28;20091;-70
2022/07/10 07:13:50;;;;;;;5.80;1.45;;;;;;;16.93;100.00;102730.13;5249264;28;20028;-70
2022/07/10 07:16:27;;;;;;;10.75;2.28;;;;;;;17.09;100.00;102730.19;5259046;28;20048;-70
2022/07/10 07:18:58;;;;;;;12.75;2.13;;;;;;;17.25;100.00;102732.94;5265557;28;20028;-70
2022/07/10 07:24:18;;;;;;;5.90;1.63;;;;;;;17.93;100.00;102728.38;5257461;28;20024;-70
2022/07/10 07:26:49;;;;;;;7.85;1.88;;;;;;;18.18;100.00;102730.06;5256559;28;20033;-70
2022/07/10 07:29:19;;;;;;;6.50;1.52;;;;;;;18.77;100.00;102735.22;5270129;28;20024;-70
2022/07/10 07:31:50;;;;;;;12.82;1.67;;;;;;;19.38;100.00;102737.19;5256244;28;20020;-70
2022/07/10 07:34:20;;;;;;;4.97;1.50;;;;;;;20.06;100.00;102734.69;5269994;28;20389;-70
2022/07/10 07:36:51;;;;;;;6.53;1.60;;;;;;;20.60;100.00;102738.09;5255257;28;20032;-70
2022/07/10 07:39:21;;;;;;;4.22;1.27;;;;;;;21.70;100.00;102727.13;5257480;28;20032;-70
2022/07/10 07:41:52;;;;;;;7.32;1.30;;;;;;;23.06;100.00;102729.66;5262312;28;20024;-70
2022/07/10 07:44:22;;;;;;;8.00;1.30;;;;;;;23.16;100.00;102733.69;5248194;28;20047;-70
2022/07/10 07:46:53;;;;;;;3.97;1.55;;;;;;;23.51;100.00;102731.69;5251386;28;20032;-70
2022/07/10 07:49:23;;;;;;;5.30;1.17;;;;;;;23.97;89.38;102725.47;5250430;28;20028;-70
2022/07/10 07:51:54;;;;;;;6.90;1.27;;;;;;;23.54;88.06;102738.63;5269637;28;20103;-71
2022/07/10 07:54:24;;;;;;;4.50;1.35;;;;;;;23.49;91.21;102732.94;5266526;28;20401;-71
2022/07/10 07:56:55;;;;;;;4.88;1.33;;;;;;;23.44;92.30;102728.06;5258339;28;20028;-70
2022/07/10 07:59:25;;;;;;;5.85;1.55;;;;;;;23.30;100.00;102728.28;5264482;28;20035;-70
2022/07/10 08:01:56;;;;;;;5.80;1.50;;;;;;;23.87;92.69;102729.69;5248533;28;20025;-70
2022/07/10 08:04:26;;;;;;;7.22;1.58;;;;;;;24.39;86.38;102725.25;5234807;28;20033;-71
2022/07/10 08:06:57;;;;;;;6.30;1.60;;;;;;;24.11;96.38;102725.47;5261882;28;20024;-71
2022/07/10 08:09:27;;;;;;;8.02;1.73;;;;;;;24.93;85.90;102724.91;5255405;28;20109;-72
2022/07/10 08:11:58;;;;;;;3.65;1.20;;;;;;;24.93;77.50;102729.56;5269098;28;20016;-71
2022/07/10 08:14:29;;;;;;;3.95;1.23;;;;;;;24.25;81.61;102724.41;5261219;28;20102;-70
2022/07/10 08:16:59;;;;;;;3.33;1.30;;;;;;;23.88;85.51;102729.47;5261984;28;20360;-70
2022/07/10 08:19:30;;;;;;;9.30;1.73;;;;;;;24.20;84.04;102737.94;5248341;28;20028;-70
2022/07/10 08:22:00;;;;;;;6.82;1.25;;;;;;;24.07;86.21;102733.28;5260803;28;20050;-71
2022/07/10 08:24:31;;;;;;;7.15;1.65;;;;;;;24.62;87.66;102735.78;5269018;28;20024;-71
2022/07/10 08:27:02;;;;;;;5.53;1.38;;;;;;;24.69;85.03;102728.38;5264366;28;20020;-71
2022/07/10 08:29:33;;;;;;;7.93;1.38;;;;;;;25.06;77.35;102732.28;5248164;28;20034;-71
2022/07/10 08:32:04;;;;;;;4.88;1.35;;;;;;;24.32;76.74;102724.41;5253877;28;20016;-71
2022/07/10 08:34:36;;;;;;;2.70;1.10;;;;;;;23.25;90.18;102723.41;5255134;28;20036;-70
2022/07/10 08:37:07;;;;;;;3.45;1.42;;;;;;;23.15;82.37;102718.31;5248035;28;20070;-71
2022/07/10 08:39:37;;;;;;;4.47;1.45;;;;;;;22.78;82.60;102713.25;5247806;28;20428;-70
2022/07/10 08:42:10;;;;;;;4.18;1.60;;;;;;;22.57;87.52;102722.41;5247817;28;20070;-71
2022/07/10 08:44:41;;;;;;;3.88;1.60;;;;;;;22.74;86.54;102713.69;5260594;28;20047;-71
2022/07/10 08:47:12;;;;;;;4.75;1.17;;;;;;;23.20;88.27;102707.59;5250098;28;20470;-70
2022/07/10 08:49:47;;;;;;;4.07;1.30;;;;;;;23.38;82.94;102704.25;5265311;28;20032;-71
2022/07/10 08:52:55;;;;;;;7.57;1.65;;;;;;;22.86;87.05;102711.19;5256200;28;20027;-71
2022/07/10 08:55:26;;;;;;;4.32;1.45;;;;;;;22.88;91.33;102713.72;5237535;28;20075;-70
2022/07/10 08:57:58;;;;;;;7.30;1.90;;;;;;;22.94;95.74;102713.81;5252691;28;20366;-71
2022/07/10 09:00:29;;;;;;;5.55;1.13;;;;;;;23.50;94.08;102713.56;5255684;28;20035;-71
2022/07/10 09:02:59;;;;;;;6.88;1.60;;;;;;;23.78;87.08;102709.84;5240673;28;20471;-71
2022/07/10 09:05:30;;;;;;;3.63;1.40;;;;;;;23.56;93.56;102708.31;5240730;28;20024;-71
2022/07/10 09:08:00;;;;;;;8.60;1.67;;;;;;;24.17;82.93;102700.78;5256094;28;20054;-71
2022/07/10 09:10:32;;;;;;;5.45;1.60;;;;;;;24.28;87.30;102700.13;5254625;28;20028;-71
2022/07/10 09:13:02;;;;;;;4.13;1.30;;;;;;;24.86;82.33;102696.66;5258585;28;20510;-71
2022/07/10 09:15:33;;;;;;;7.70;1.45;;;;;;;24.63;79.18;102691.66;5263978;28;20360;-71
2022/07/10 09:18:07;;;;;;;8.57;1.60;;;;;;;24.34;78.13;102686.63;5266541;28;20469;-71
2022/07/10 09:20:39;;;;;;;4.35;1.10;;;;;;;24.16;77.69;102688.13;5255620;28;20024;-71
2022/07/10 09:23:27;;;;;;;7.35;1.70;;;;;;;23.18;84.84;102679.56;5246938;28;20054;-70
2022/07/10 09:26:04;;;;;;;5.18;1.50;;;;;;;22.34;87.19;102678.91;5245553;28;20032;-71
2022/07/10 09:28:34;;;;;;;4.75;1.40;;;;;;;22.30;100.00;102675.75;5250136;28;20496;-71
2022/07/10 09:31:05;;;;;;;8.05;1.73;;;;;;;22.92;100.00;102677.56;5256917;28;20036;-71
2022/07/10 09:33:37;;;;;;;5.53;1.40;;;;;;;24.03;89.61;102682.66;5251252;28;20032;-70
2022/07/10 09:36:09;;;;;;;4.25;1.40;;;;;;;24.57;83.99;102677.97;5268436;28;20069;-71
2022/07/10 09:38:39;;;;;;;5.35;1.73;;;;;;;24.36;83.02;102674.44;5260996;28;20035;-70
2022/07/10 09:41:12;;;;;;;7.05;1.70;;;;;;;24.05;81.33;102672.34;5260133;28;20040;-71
2022/07/10 09:43:46;;;;;;;4.32;1.67;;;;;;;24.08;79.42;102676.53;5259464;28;20028;-71
2022/07/10 09:46:19;;;;;;;3.63;1.48;;;;;;;23.22;80.83;102671.78;5262142;28;20465;-71
2022/07/10 09:49:09;;;;;;;5.95;1.40;;;;;;;22.82;86.37;102671.59;5246500;28;20448;-71
2022/07/10 09:51:41;;;;;;;4.88;1.30;;;;;;;23.39;95.03;102672.22;5259535;28;20491;-70
2022/07/10 09:54:12;;;;;;;10.10;1.35;;;;;;;23.44;96.71;102664.25;5246900;28;20024;-71
2022/07/10 09:56:46;;;;;;;6.03;1.48;;;;;;;23.62;94.85;102669.13;5262348;28;20060;-70
2022/07/10 09:59:18;;;;;;;3.47;1.40;;;;;;;23.53;85.07;102672.06;5264726;28;20028;-71
2022/07/10 10:01:51;;;;;;;4.93;1.77;;;;;;;22.99;89.70;102664.78;5245861;28;20031;-71
2022/07/10 10:04:24;;;;;;;5.72;1.70;;;;;;;22.28;93.03;102672.34;5232473;28;20048;-71
2022/07/10 10:06:58;;;;;;;7.22;1.65;;;;;;;21.58;100.00;102668.59;5246643;28;20462;-71
2022/07/10 10:09:37;;;;;;;5.95;1.65;;;;;;;21.19;100.00;102679.91;5246078;28;20431;-70
2022/07/10 10:12:16;;;;;;;5.57;1.77;;;;;;;21.04;100.00;102677.22;5245855;28;20499;-70
2022/07/10 10:14:47;;;;;;;4.28;1.77;;;;;;;21.14;100.00;102675.03;5256386;28;20060;-70
2022/07/10 10:17:21;;;;;;;5.93;1.55;;;;;;;21.26;100.00;102672.63;5248863;28;20074;-70
2022/07/10 10:22:45;;;;;;;5.07;2.10;;;;;;;21.39;100.00;102672.81;5254413;28;20485;-70
2022/07/10 10:25:17;;;;;;;5.65;1.95;;;;;;;21.58;100.00;102667.75;5249513;28;20544;-70
2022/07/10 10:27:47;;;;;;;8.52;2.20;;;;;;;22.07;100.00;102661.44;5256891;28;20028;-70
2022/07/10 10:30:18;;;;;;;3.92;1.83;;;;;;;22.68;100.00;102654.28;5253135;28;20024;-70
2022/07/10 10:32:49;;;;;;;3.40;1.70;;;;;;;23.40;100.00;102654.78;5254173;28;20038;-71
2022/07/10 10:35:57;;;;;;;4.70;1.90;;;;;;;23.38;94.25;102654.97;5251408;28;20028;-70
2022/07/10 10:38:46;;;;;;;2.72;1.67;;;;;;;23.05;100.00;102645.84;5252812;28;20016;-70
2022/07/10 10:41:52;;;;;;;5.90;1.75;;;;;;;22.60;97.99;102656.34;5252751;28;20371;-70
2022/07/10 10:44:24;;;;;;;4.05;1.90;;;;;;;22.44;100.00;102657.50;5253181;28;20389;-70
2022/07/10 10:47:00;;;;;;;4.20;1.70;;;;;;;22.23;100.00;102662.00;5259539;28;20017;-70
2022/07/10 10:49:51;;;;;;;4.28;2.00;;;;;;;22.37;100.00;102660.22;5259104;28;20026;-70
2022/07/10 10:52:24;;;;;;;5.65;2.00;;;;;;;22.39;100.00;102657.25;5245910;28;20050;-70
2022/07/10 10:54:56;;;;;;;4.47;2.10;;;;;;;22.25;100.00;102656.38;5244056;28;20027;-70
2022/07/10 10:57:47;;;;;;;4.82;2.08;;;;;;;22.20;100.00;102656.97;5246950;28;20386;-70
2022/07/10 11:00:37;;;;;;;5.85;2.00;;;;;;;21.87;100.00;102659.41;5265790;28;20028;-70
2022/07/10 11:03:24;;;;;;;7.88;1.95;;;;;;;21.71;100.00;102657.78;5225251;28;20083;-70
2022/07/10 11:05:55;;;;;;;5.47;2.10;;;;;;;21.84;100.00;102654.34;5255343;28;20390;-70
2022/07/10 11:08:44;;;;;;;7.70;2.50;;;;;;;22.00;100.00;102647.75;5256528;28;20036;-70
2022/07/10 11:11:34;;;;;;;7.35;2.63;;;;;;;22.47;100.00;102644.28;5240584;28;20478;-70
2022/07/10 11:14:06;;;;;;;6.00;2.20;;;;;;;23.11;100.00;102632.16;5247822;28;20024;-70
2022/07/10 11:16:37;;;;;;;4.80;1.75;;;;;;;23.70;100.00;102625.97;5257334;28;20030;-70
2022/07/10 11:19:08;;;;;;;6.80;2.25;;;;;;;23.99;100.00;102626.56;5251098;28;20085;-70
2022/07/10 11:21:47;;;;;;;4.60;2.00;;;;;;;24.48;99.13;102620.56;5256020;28;20047;-70
2022/07/10 11:24:38;;;;;;;7.63;1.70;;;;;;;24.96;93.94;102614.69;5244912;28;20028;-71
2022/07/10 11:27:26;;;;;;;8.45;2.78;;;;;;;25.15;94.52;102618.41;5263573;28;20024;-71
2022/07/10 11:29:59;;;;;;;5.45;2.05;;;;;;;25.36;90.40;102617.22;5251002;28;20028;-70
2022/07/10 11:32:29;;;;;;;3.55;1.67;;;;;;;25.49;88.15;102610.75;5254135;28;20016;-70
2022/07/10 11:35:00;;;;;;;6.28;1.90;;;;;;;25.57;82.60;102611.34;5251973;28;20107;-70
2022/07/10 11:37:31;;;;;;;5.13;1.88;;;;;;;25.58;81.41;102606.69;5265903;28;20473;-70
2022/07/10 11:40:13;;;;;;;3.17;1.73;;;;;;;25.02;82.31;102608.31;5251972;28;20173;-70
2022/07/10 11:43:05;;;;;;;3.53;1.70;;;;;;;24.55;88.20;102606.84;5265905;28;20071;-71
2022/07/10 11:45:38;;;;;;;6.68;1.65;;;;;;;24.71;86.16;102605.53;5243950;28;20024;-70
2022/07/10 11:48:18;;;;;;;5.15;2.40;;;;;;;24.52;86.66;102597.16;5249731;28;20025;-70